01:40 Rennrad Moetz - Silz - 4x Agip - Haiming - Apfelstr - Agip - Silz - Moetz
Ort Moetz Datum 07.08.2017 11:17:21
Kategorie Rennrad
Distanz 59,02 Kilometer Steigung 166,0 Meter Gefälle -155,0 Meter
Gesamt Zeit 01:40:28 Aktiv 01:40:28 Pause 00:00:00
Durchs. Tempo 35,2 km/h Tempo max. 44,2 km/h Tempo min. 22,8 km/h
Kalorien 0 Durchs. HF 140 BPM HF max. 154 BPM
Wetter 21 °C PartClouds Min/Max: 19,7 °C/21,7 °C; Druck: 1018,2 mbar; Rel. Feuchte: 76,1%; Taupunkt: 15,7 °C; Windgeschwindigkeit: 2,5 km/h; Niederschlag: 0,0mm
Ausrüstung Bontrager - RL Road
Scott - Addict 20
Notiz Moetz - Silz - 4x Agip - Haiming - Apfelstr - Agip - Silz - Moetz ... trocken, warm, leichter bis mittlerer Wind in Richtung Imst - flott ... garmin connect
Splits
Distanz (km) Gesamt Zeit Split Zeit Split Tempo Split Tempo Höhenprofil (m)
1,00 00:01:58 00:01:58 00:01:58 30,5 -10,10
2,00 00:03:51 00:01:53 00:01:53 31,8 2,19
3,00 00:05:30 00:01:39 00:01:39 36,2 7,89
4,00 00:07:12 00:01:41 00:01:41 35,6 9,23
5,00 00:09:05 00:01:53 00:01:53 31,8 5,63
6,00 00:10:46 00:01:40 00:01:41 35,7 5,79
7,00 00:12:30 00:01:44 00:01:45 34,4 1,23
8,00 00:14:10 00:01:39 00:01:40 36,0 7,18
9,00 00:15:49 00:01:38 00:01:39 36,5 -8,20
10,00 00:17:34 00:01:44 00:01:45 34,3 -9,70
11,00 00:19:19 00:01:45 00:01:46 34,1 -0,93
12,00 00:21:04 00:01:44 00:01:44 34,6 -3,45
13,00 00:22:46 00:01:42 00:01:43 35,0 1,68
14,00 00:24:27 00:01:40 00:01:41 35,8 -4,27
15,00 00:26:10 00:01:43 00:01:43 34,9 -8,61
16,00 00:27:49 00:01:39 00:01:39 36,3 0,38
17,00 00:29:36 00:01:46 00:01:47 33,8 9,29
18,00 00:31:27 00:01:51 00:01:51 32,3 7,32
19,00 00:33:09 00:01:42 00:01:42 35,2 6,12
20,00 00:34:49 00:01:39 00:01:40 36,1 2,12
21,00 00:36:29 00:01:40 00:01:40 36,0 4,91
22,00 00:38:04 00:01:34 00:01:35 38,0 -0,83
23,00 00:39:38 00:01:33 00:01:34 38,3 -9,64
24,00 00:41:19 00:01:40 00:01:41 35,7 -3,52
25,00 00:43:01 00:01:41 00:01:42 35,4 -3,47
26,00 00:44:41 00:01:40 00:01:40 35,9 -1,19
27,00 00:46:21 00:01:40 00:01:40 35,9 0,66
28,00 00:48:05 00:01:44 00:01:44 34,6 -9,05
29,00 00:49:45 00:01:39 00:01:39 36,2 -5,11
30,00 00:51:30 00:01:45 00:01:45 34,1 8,08
31,00 00:53:15 00:01:45 00:01:45 34,2 9,09
32,00 00:55:01 00:01:45 00:01:45 34,2 5,53
33,00 00:56:37 00:01:36 00:01:37 37,1 4,91
34,00 00:58:18 00:01:40 00:01:41 35,7 1,67
35,00 00:59:58 00:01:39 00:01:40 36,1 6,77
36,00 01:01:34 00:01:36 00:01:36 37,4 -10,28
37,00 01:03:04 00:01:29 00:01:30 40,2 -8,76
38,00 01:04:50 00:01:45 00:01:46 34,0 -0,70
39,00 01:06:28 00:01:38 00:01:38 36,6 -3,38
40,00 01:08:09 00:01:40 00:01:41 35,7 1,74
41,00 01:09:51 00:01:41 00:01:42 35,4 -7,41
42,00 01:11:33 00:01:41 00:01:42 35,4 -5,27
43,00 01:13:18 00:01:45 00:01:46 34,0 3,68
44,00 01:15:01 00:01:42 00:01:42 35,2 8,99
45,00 01:16:54 00:01:53 00:01:53 31,7 6,02
46,00 01:18:31 00:01:37 00:01:37 37,1 6,00
47,00 01:20:09 00:01:37 00:01:38 36,9 1,35
48,00 01:21:48 00:01:39 00:01:39 36,3 6,70
49,00 01:23:23 00:01:35 00:01:35 37,9 -6,41
50,00 01:24:57 00:01:33 00:01:33 38,6 -9,83
51,00 01:26:42 00:01:45 00:01:46 34,0 -0,75
52,00 01:28:24 00:01:41 00:01:41 35,5 -4,12
53,00 01:30:06 00:01:42 00:01:42 35,1 1,08
54,00 01:31:47 00:01:40 00:01:41 35,7 -2,43
55,00 01:33:30 00:01:43 00:01:43 34,8 -9,41
56,00 01:35:12 00:01:41 00:01:41 35,5 -1,88
57,00 01:36:56 00:01:44 00:01:45 34,4 -1,95
58,00 01:38:32 00:01:36 00:01:36 37,5 -2,62
59,00 01:40:18 00:01:45 00:01:46 34,1 9,68
59,06 01:40:28 00:00:09 00:02:34 23,3 0,34